« Back
NWS Peachtree City, Ga » Text Product » ATL Terminal Aerodrome Forecast


Printer-friendly Version
Current Version              Previous Versions:   1  2  3  4  5  6  7  8  9  

Terminal Aerodrome Forecast

298
FTUS42 KFFC 191500 AAB
TAFATL
TAF AMD
KATL 191544Z 1916/2018 05015G25KT P6SM SCT009 OVC015
      TEMPO 1916/1918 5SM -DZ
     FM192200 05012G20KT P6SM OVC020
     FM200200 06012KT P6SM OVC025
     FM201500 07012G22KT P6SM SCT030 BKN060=



USA.gov is the U.S. government's official web portal to all federal, state and local government web resources and services.